createdAt,value
2022-10-22T00:00:56.450Z,69.89
2022-10-22T00:01:58.628Z,69.99
2022-10-22T00:03:00.938Z,70.04
2022-10-22T00:04:03.123Z,69.75
2022-10-22T00:05:05.990Z,69.82
2022-10-22T00:06:09.047Z,70.02
2022-10-22T00:07:11.265Z,69.90
2022-10-22T00:08:14.348Z,69.75
2022-10-22T00:09:16.726Z,70.09
2022-10-22T00:10:19.166Z,69.81
2022-10-22T00:11:21.612Z,69.87
2022-10-22T00:12:24.045Z,70.06
2022-10-22T00:13:26.221Z,70.00
2022-10-22T00:14:28.549Z,69.94
2022-10-22T00:15:30.829Z,69.94
2022-10-22T00:16:33.055Z,69.97
2022-10-22T00:17:37.678Z,70.09
2022-10-22T00:18:40.890Z,70.05
2022-10-22T00:19:43.189Z,70.12
2022-10-22T00:20:45.378Z,69.90
2022-10-22T00:21:48.270Z,70.02
2022-10-22T00:24:12.585Z,69.99
2022-10-22T00:25:15.399Z,70.16
2022-10-22T00:26:17.600Z,70.14
2022-10-22T00:27:19.814Z,69.94
2022-10-22T00:28:23.667Z,70.21
2022-10-22T00:29:25.922Z,70.06
2022-10-22T00:30:28.418Z,69.90
2022-10-22T00:31:30.736Z,70.14
2022-10-22T00:32:32.919Z,70.06
2022-10-22T00:33:35.253Z,70.21
2022-10-22T00:34:37.509Z,70.09
2022-10-22T00:35:39.763Z,70.10
2022-10-22T00:36:41.952Z,70.09
2022-10-22T00:37:44.260Z,70.19
2022-10-22T00:38:46.494Z,70.12
2022-10-22T00:39:48.981Z,70.18
2022-10-22T00:40:51.556Z,70.19
2022-10-22T00:41:56.572Z,70.09
2022-10-22T00:42:58.778Z,70.21
2022-10-22T00:44:04.843Z,70.11
2022-10-22T00:45:14.827Z,70.10
2022-10-22T00:46:17.224Z,70.13
2022-10-22T00:47:21.514Z,70.16
2022-10-22T00:48:30.497Z,70.14
2022-10-22T00:49:32.816Z,70.26
2022-10-22T00:51:00.436Z,70.19
2022-10-22T00:52:02.678Z,70.29
2022-10-22T00:53:08.862Z,70.32
2022-10-22T00:54:11.100Z,70.23
2022-10-22T00:55:14.292Z,70.42
2022-10-22T00:56:17.607Z,70.36
2022-10-22T00:57:21.080Z,70.44
2022-10-22T00:58:26.521Z,70.19
2022-10-22T00:59:29.676Z,70.36
2022-10-22T01:00:32.139Z,70.53
2022-10-22T01:01:36.997Z,70.54
2022-10-22T01:02:39.891Z,70.49
2022-10-22T01:03:42.616Z,70.44
2022-10-22T01:04:45.351Z,70.40
2022-10-22T01:05:57.020Z,70.37
2022-10-22T01:06:59.235Z,70.43
2022-10-22T01:08:02.415Z,70.51
2022-10-22T01:09:19.847Z,70.42
2022-10-22T01:10:30.772Z,70.45
2022-10-22T01:11:51.604Z,70.51
2022-10-22T01:12:59.053Z,70.33
2022-10-22T01:14:17.935Z,70.52
2022-10-22T01:15:33.312Z,70.48
2022-10-22T01:16:46.267Z,70.52
2022-10-22T01:17:58.673Z,70.56
2022-10-22T01:19:21.839Z,70.59
2022-10-22T01:20:29.796Z,70.63
2022-10-22T01:21:35.795Z,70.67
2022-10-22T01:23:00.918Z,70.57
2022-10-22T01:24:25.029Z,70.50
2022-10-22T01:25:56.282Z,70.36
2022-10-22T01:27:15.475Z,70.63
2022-10-22T01:28:50.649Z,70.50
2022-10-22T01:30:14.020Z,70.61
2022-10-22T01:31:21.713Z,70.57
2022-10-22T01:32:28.686Z,70.51
2022-10-22T01:33:32.894Z,70.65
2022-10-22T01:34:36.368Z,70.52
2022-10-22T01:35:43.982Z,70.91
2022-10-22T01:36:48.295Z,70.56
2022-10-22T01:38:04.684Z,70.71
2022-10-22T01:39:08.624Z,70.58
2022-10-22T01:40:11.956Z,70.65
2022-10-22T01:41:14.504Z,70.69
2022-10-22T01:42:19.172Z,70.49
2022-10-22T01:43:21.572Z,70.68
2022-10-22T01:44:23.713Z,70.81
2022-10-22T01:45:27.008Z,70.61
2022-10-22T01:46:29.745Z,70.54
2022-10-22T01:48:03.632Z,70.76
2022-10-22T01:49:27.558Z,70.77
2022-10-22T01:50:40.617Z,70.57
2022-10-22T01:51:51.994Z,70.60
2022-10-22T01:53:10.713Z,70.69
2022-10-22T01:54:23.442Z,70.63
2022-10-22T01:55:52.990Z,70.79
2022-10-22T01:57:07.356Z,70.67
2022-10-22T01:58:24.861Z,70.57
2022-10-22T01:59:55.226Z,70.52
2022-10-22T02:01:08.926Z,70.51
2022-10-22T02:02:23.426Z,70.49
2022-10-22T02:03:30.772Z,70.48
2022-10-22T02:04:46.938Z,70.66
2022-10-22T02:05:53.659Z,70.64
2022-10-22T02:07:02.413Z,70.45
2022-10-22T02:08:32.813Z,70.60
2022-10-22T02:09:36.654Z,70.40
2022-10-22T02:10:41.897Z,70.54
2022-10-22T02:11:45.492Z,70.56
2022-10-22T02:12:52.267Z,70.44
2022-10-22T02:14:00.239Z,70.61
2022-10-22T02:15:04.343Z,70.68
2022-10-22T02:16:11.060Z,70.53
2022-10-22T02:17:18.699Z,70.51
2022-10-22T02:18:24.532Z,70.64
2022-10-22T02:19:35.700Z,70.49
2022-10-22T02:20:41.330Z,70.68
2022-10-22T02:21:45.298Z,70.49
2022-10-22T02:22:47.657Z,70.38
2022-10-22T02:23:50.164Z,70.51
2022-10-22T02:24:52.451Z,70.53
2022-10-22T02:26:02.200Z,70.52
2022-10-22T02:27:16.873Z,70.35
2022-10-22T02:28:44.168Z,70.52
2022-10-22T02:29:55.666Z,70.49
2022-10-22T02:31:05.349Z,70.57
2022-10-22T02:32:10.180Z,70.42
2022-10-22T02:33:19.593Z,70.54
2022-10-22T02:34:25.640Z,70.39
2022-10-22T02:35:29.286Z,70.49
2022-10-22T02:36:39.690Z,70.41
2022-10-22T02:37:43.068Z,70.62
2022-10-22T02:38:47.663Z,70.72
2022-10-22T02:39:53.980Z,70.62
2022-10-22T02:40:56.354Z,70.58
2022-10-22T02:41:58.629Z,70.40
2022-10-22T02:43:04.706Z,70.49
2022-10-22T02:44:11.055Z,70.58
2022-10-22T02:45:13.280Z,70.47
2022-10-22T02:46:16.809Z,70.44
2022-10-22T02:47:19.088Z,70.49
2022-10-22T02:49:43.373Z,70.33
2022-10-22T02:50:45.608Z,70.56
2022-10-22T02:51:47.790Z,70.57
2022-10-22T02:52:50.114Z,70.53
2022-10-22T02:53:52.276Z,70.59
2022-10-22T02:54:54.456Z,70.51
2022-10-22T02:55:56.689Z,70.48
2022-10-22T02:56:58.887Z,70.60
2022-10-22T02:58:01.095Z,70.48
2022-10-22T02:59:03.421Z,70.36
2022-10-22T03:00:08.168Z,70.54
2022-10-22T03:01:13.711Z,70.53
2022-10-22T03:02:18.114Z,70.41
2022-10-22T03:03:20.324Z,70.40
2022-10-22T03:04:22.507Z,70.53
2022-10-22T03:05:24.694Z,70.50
2022-10-22T03:06:26.956Z,70.49
2022-10-22T03:07:29.423Z,70.45
2022-10-22T03:08:31.802Z,70.50
2022-10-22T03:09:34.148Z,70.62
2022-10-22T03:10:38.814Z,70.58
2022-10-22T03:11:41.040Z,70.61
2022-10-22T03:12:43.257Z,70.57
2022-10-22T03:13:45.446Z,70.50
2022-10-22T03:14:47.634Z,70.60
2022-10-22T03:15:51.094Z,70.64
2022-10-22T03:16:53.280Z,70.50
2022-10-22T03:17:55.544Z,70.77
2022-10-22T03:18:57.756Z,70.75
2022-10-22T03:19:59.932Z,70.83
2022-10-22T03:21:10.079Z,70.63
2022-10-22T03:22:23.632Z,70.60
2022-10-22T03:23:25.868Z,70.80
2022-10-22T03:24:34.309Z,70.86
2022-10-22T03:25:36.788Z,70.68
2022-10-22T03:26:44.120Z,70.68
2022-10-22T03:27:47.729Z,70.55
2022-10-22T03:28:50.274Z,70.62
2022-10-22T03:29:52.938Z,70.60
2022-10-22T03:30:57.429Z,70.67
2022-10-22T03:31:59.798Z,70.67
2022-10-22T03:33:02.006Z,70.62
2022-10-22T03:34:04.209Z,70.78
2022-10-22T03:35:06.791Z,70.52
2022-10-22T03:36:09.590Z,70.47
2022-10-22T03:37:11.797Z,70.77
2022-10-22T03:38:14.877Z,70.58
2022-10-22T03:39:19.534Z,70.58
2022-10-22T03:40:22.096Z,70.68
2022-10-22T03:41:24.339Z,70.45
2022-10-22T03:42:27.106Z,70.57
2022-10-22T03:43:29.560Z,70.47
2022-10-22T03:44:32.701Z,70.54
2022-10-22T03:45:35.053Z,70.58
2022-10-22T03:46:37.396Z,70.69
2022-10-22T03:47:39.873Z,70.66
2022-10-22T03:48:42.324Z,70.53
2022-10-22T03:49:44.506Z,70.44
2022-10-22T03:50:49.205Z,70.56
2022-10-22T03:51:51.518Z,70.73
2022-10-22T03:52:53.789Z,70.44
2022-10-22T03:53:56.171Z,70.65
2022-10-22T03:54:59.462Z,70.49
2022-10-22T03:56:01.662Z,70.62
2022-10-22T03:57:07.466Z,70.61
2022-10-22T03:58:09.827Z,70.61
2022-10-22T03:59:13.286Z,70.36
2022-10-22T04:00:15.783Z,70.23
2022-10-22T04:01:18.077Z,70.47
2022-10-22T04:02:20.331Z,70.52
2022-10-22T04:03:22.532Z,70.52
2022-10-22T04:04:24.817Z,70.45
2022-10-22T04:05:27.046Z,70.46
2022-10-22T04:06:30.181Z,70.43
2022-10-22T04:07:32.422Z,70.55
2022-10-22T04:08:35.098Z,70.19
2022-10-22T04:09:37.508Z,70.43
2022-10-22T04:10:39.719Z,70.50
2022-10-22T04:11:41.940Z,70.31
2022-10-22T04:12:47.768Z,70.48
2022-10-22T04:13:49.962Z,70.32
2022-10-22T04:14:52.174Z,70.49
2022-10-22T04:15:54.563Z,70.33
2022-10-22T04:16:57.088Z,70.26
2022-10-22T04:17:59.342Z,70.34
2022-10-22T04:19:01.565Z,70.47
2022-10-22T04:20:05.124Z,70.11
2022-10-22T04:21:09.400Z,70.47
2022-10-22T04:22:11.631Z,70.33
2022-10-22T04:23:13.973Z,70.47
2022-10-22T04:24:16.202Z,70.32
2022-10-22T04:25:18.404Z,70.30
2022-10-22T04:26:21.680Z,70.34
2022-10-22T04:27:23.977Z,70.31
2022-10-22T04:28:26.226Z,70.36
2022-10-22T04:29:28.397Z,70.21
2022-10-22T04:30:30.601Z,70.23
2022-10-22T04:31:32.931Z,70.38
2022-10-22T04:32:35.201Z,70.21
2022-10-22T04:33:38.045Z,70.34
2022-10-22T04:34:40.245Z,70.30
2022-10-22T04:35:42.403Z,70.37
2022-10-22T04:36:44.665Z,70.50
2022-10-22T04:37:46.821Z,70.43
2022-10-22T04:38:54.062Z,70.53
2022-10-22T04:39:58.136Z,70.54
2022-10-22T04:41:30.933Z,70.45
2022-10-22T04:42:33.134Z,70.30
2022-10-22T04:43:35.395Z,70.36
2022-10-22T04:44:37.563Z,70.54
2022-10-22T04:45:39.773Z,70.47
2022-10-22T04:46:41.995Z,70.49
2022-10-22T04:47:44.345Z,70.50
2022-10-22T04:48:47.421Z,70.47
2022-10-22T04:49:49.837Z,70.34
2022-10-22T04:50:52.108Z,70.55
2022-10-22T04:51:54.420Z,70.51
2022-10-22T04:52:56.676Z,70.27
2022-10-22T04:53:59.266Z,70.33
2022-10-22T04:55:01.613Z,70.34
2022-10-22T04:56:10.786Z,70.55
2022-10-22T04:57:14.584Z,70.55
2022-10-22T04:58:16.846Z,70.52
2022-10-22T04:59:19.136Z,70.48
2022-10-22T05:00:21.438Z,70.42
2022-10-22T05:01:27.030Z,70.35
2022-10-22T05:02:29.349Z,70.34
2022-10-22T05:03:31.569Z,70.38
2022-10-22T05:04:33.789Z,70.46
2022-10-22T05:05:38.640Z,70.23
2022-10-22T05:06:41.440Z,70.38
2022-10-22T05:07:43.946Z,70.45
2022-10-22T05:08:47.452Z,70.32
2022-10-22T05:09:50.273Z,70.60
2022-10-22T05:10:52.535Z,70.35
2022-10-22T05:11:54.854Z,70.41
2022-10-22T05:12:57.083Z,70.32
2022-10-22T05:14:01.025Z,70.39
2022-10-22T05:15:03.327Z,70.44
2022-10-22T05:16:05.757Z,70.31
2022-10-22T05:17:07.922Z,70.41
2022-10-22T05:18:10.162Z,70.32
2022-10-22T05:19:20.733Z,70.45
2022-10-22T05:20:23.044Z,70.45
2022-10-22T05:21:25.777Z,70.34
2022-10-22T05:22:28.095Z,70.49
2022-10-22T05:23:30.380Z,70.46
2022-10-22T05:24:34.511Z,70.26
2022-10-22T05:25:40.177Z,70.55
2022-10-22T05:26:42.709Z,70.50
2022-10-22T05:27:49.426Z,70.36
2022-10-22T05:28:52.555Z,70.22
2022-10-22T05:29:54.805Z,70.34
2022-10-22T05:30:59.676Z,70.23
2022-10-22T05:32:01.954Z,70.37
2022-10-22T05:33:05.204Z,70.31
2022-10-22T05:34:07.436Z,70.34
2022-10-22T05:35:09.809Z,70.31
2022-10-22T05:36:15.754Z,70.48
2022-10-22T05:37:17.955Z,70.55
2022-10-22T05:38:20.781Z,70.55
2022-10-22T05:39:23.056Z,70.51
2022-10-22T05:40:31.088Z,70.40
2022-10-22T05:41:38.504Z,70.43
2022-10-22T05:42:41.038Z,70.36
2022-10-22T05:43:43.939Z,70.42
2022-10-22T05:44:46.255Z,70.36
2022-10-22T05:45:48.466Z,70.37
2022-10-22T05:46:53.005Z,70.29
2022-10-22T05:47:55.493Z,70.38
2022-10-22T05:48:59.728Z,70.52
2022-10-22T05:50:01.996Z,70.33
2022-10-22T05:51:09.066Z,70.59
2022-10-22T05:52:12.489Z,70.55
2022-10-22T05:53:14.874Z,70.43
2022-10-22T05:54:20.365Z,70.38
2022-10-22T05:55:22.619Z,70.53
2022-10-22T05:56:27.684Z,70.38
2022-10-22T05:57:29.904Z,70.48
2022-10-22T05:58:32.265Z,70.49
2022-10-22T05:59:34.548Z,70.39
2022-10-22T06:00:36.723Z,70.57
2022-10-22T06:01:40.780Z,70.58
2022-10-22T06:02:43.283Z,70.55
2022-10-22T06:03:46.790Z,70.36
2022-10-22T06:04:48.984Z,70.38
2022-10-22T06:05:51.202Z,70.52
2022-10-22T06:06:53.664Z,70.37
2022-10-22T06:07:57.220Z,70.37
2022-10-22T06:09:24.116Z,70.66
2022-10-22T06:10:26.520Z,70.56
2022-10-22T06:11:31.141Z,70.36
2022-10-22T06:12:36.513Z,70.45
2022-10-22T06:13:38.875Z,70.50
2022-10-22T06:14:41.101Z,70.27
2022-10-22T06:15:43.630Z,70.57
2022-10-22T06:16:45.841Z,70.54
2022-10-22T06:17:48.451Z,70.40
2022-10-22T06:18:50.719Z,70.54
2022-10-22T06:19:53.039Z,70.47
2022-10-22T06:20:55.327Z,70.34
2022-10-22T06:21:57.595Z,70.54
2022-10-22T06:22:59.882Z,70.52
2022-10-22T06:24:04.407Z,70.43
2022-10-22T06:25:13.137Z,70.58
2022-10-22T06:26:15.755Z,70.56
2022-10-22T06:27:18.055Z,70.59
2022-10-22T06:28:20.281Z,70.56
2022-10-22T06:29:22.694Z,70.64
2022-10-22T06:30:25.172Z,70.65
2022-10-22T06:31:28.796Z,70.68
2022-10-22T06:32:31.029Z,70.51
2022-10-22T06:33:34.968Z,70.57
2022-10-22T06:34:37.235Z,70.56
2022-10-22T06:35:39.450Z,70.51
2022-10-22T06:36:43.956Z,70.63
2022-10-22T06:37:47.569Z,70.50
2022-10-22T06:38:56.600Z,70.56
2022-10-22T06:39:58.855Z,70.67
2022-10-22T06:41:10.671Z,70.50
2022-10-22T06:42:12.939Z,70.33
2022-10-22T06:43:15.655Z,70.49
2022-10-22T06:44:19.517Z,70.46
2022-10-22T06:45:21.811Z,70.55
2022-10-22T06:46:24.930Z,70.48
2022-10-22T06:47:27.253Z,70.43
2022-10-22T06:48:29.945Z,70.42
2022-10-22T06:49:32.173Z,70.45
2022-10-22T06:50:35.310Z,70.67
2022-10-22T06:51:37.589Z,70.34
2022-10-22T06:52:40.018Z,70.38
2022-10-22T06:53:42.405Z,70.42
2022-10-22T06:54:44.680Z,70.32
2022-10-22T06:55:46.909Z,70.51
2022-10-22T06:56:49.241Z,70.47
2022-10-22T06:57:51.505Z,70.53
2022-10-22T06:58:55.889Z,70.34
2022-10-22T06:59:58.152Z,70.19
2022-10-22T07:01:02.958Z,70.43
2022-10-22T07:02:05.380Z,70.16
2022-10-22T07:03:09.243Z,70.35
2022-10-22T07:04:11.640Z,70.18
2022-10-22T07:05:13.893Z,70.38
2022-10-22T07:06:16.064Z,70.40
2022-10-22T07:07:18.359Z,70.22
2022-10-22T07:08:20.539Z,70.28
2022-10-22T07:09:22.768Z,70.17
2022-10-22T07:10:28.496Z,70.21
2022-10-22T07:11:43.853Z,70.33
2022-10-22T07:12:46.015Z,70.28
2022-10-22T07:13:49.078Z,70.26
2022-10-22T07:14:51.309Z,70.04
2022-10-22T07:15:55.148Z,70.06
2022-10-22T07:16:59.593Z,70.11
2022-10-22T07:18:04.759Z,70.01
2022-10-22T07:19:07.843Z,70.09
2022-10-22T07:20:10.506Z,70.14
2022-10-22T07:21:14.647Z,70.12
2022-10-22T07:22:16.847Z,70.01
2022-10-22T07:23:19.119Z,70.10
2022-10-22T07:24:21.322Z,69.95
2022-10-22T07:25:23.602Z,70.10
2022-10-22T07:26:28.281Z,69.83
2022-10-22T07:27:30.544Z,69.93
2022-10-22T07:28:34.010Z,70.02
2022-10-22T07:29:38.640Z,69.96
2022-10-22T07:30:41.460Z,69.98
2022-10-22T07:31:44.196Z,69.98
2022-10-22T07:32:46.369Z,69.79
2022-10-22T07:33:48.561Z,69.81
2022-10-22T07:34:50.866Z,69.75
2022-10-22T07:36:02.117Z,69.80
2022-10-22T07:37:04.310Z,69.89
2022-10-22T07:38:08.658Z,69.65
2022-10-22T07:39:11.609Z,69.78
2022-10-22T07:40:13.863Z,69.67
2022-10-22T07:41:18.448Z,69.72
2022-10-22T07:42:20.728Z,69.49
2022-10-22T07:43:23.152Z,69.70
2022-10-22T07:44:25.412Z,69.70
2022-10-22T07:45:27.747Z,69.77
2022-10-22T07:46:29.953Z,69.63
2022-10-22T07:47:32.156Z,69.75
2022-10-22T07:48:37.783Z,69.51
2022-10-22T07:49:39.999Z,69.57
2022-10-22T07:50:45.556Z,69.47
2022-10-22T07:51:47.834Z,69.73
2022-10-22T07:52:50.079Z,69.59
2022-10-22T07:53:52.414Z,69.71
2022-10-22T07:54:57.809Z,69.60
2022-10-22T07:56:00.064Z,69.62
2022-10-22T07:57:02.245Z,69.45
2022-10-22T07:58:04.436Z,69.45
2022-10-22T07:59:06.772Z,69.56
2022-10-22T08:00:10.005Z,69.56
2022-10-22T08:01:15.038Z,69.60
2022-10-22T08:02:17.274Z,69.63
2022-10-22T08:03:19.496Z,69.47
2022-10-22T08:04:21.686Z,69.43
2022-10-22T08:05:23.986Z,69.47
2022-10-22T08:06:26.219Z,69.43
2022-10-22T08:07:28.473Z,69.43
2022-10-22T08:08:31.078Z,69.48
2022-10-22T08:09:33.648Z,69.54
2022-10-22T08:10:36.710Z,69.79
2022-10-22T08:11:39.334Z,69.57
2022-10-22T08:12:42.134Z,69.77
2022-10-22T08:13:45.792Z,69.74
2022-10-22T08:14:48.223Z,69.61
2022-10-22T08:15:52.440Z,69.78
2022-10-22T08:16:58.588Z,69.57
2022-10-22T08:18:00.831Z,69.51
2022-10-22T08:19:03.107Z,69.84
2022-10-22T08:20:05.957Z,69.83
2022-10-22T08:21:08.288Z,69.68
2022-10-22T08:22:10.683Z,69.77
2022-10-22T08:23:12.940Z,70.00
2022-10-22T08:24:15.388Z,70.02
2022-10-22T08:25:18.547Z,69.94
2022-10-22T08:26:20.735Z,69.96
2022-10-22T08:27:23.100Z,69.85
2022-10-22T08:28:26.025Z,69.88
2022-10-22T08:29:28.276Z,69.90
2022-10-22T08:30:30.593Z,70.03
2022-10-22T08:31:33.464Z,69.99
2022-10-22T08:32:35.861Z,69.98
2022-10-22T08:33:39.100Z,70.18
2022-10-22T08:34:41.487Z,70.31
2022-10-22T08:35:48.512Z,70.30
2022-10-22T08:36:50.759Z,70.38
2022-10-22T08:37:52.986Z,70.19
2022-10-22T08:38:55.226Z,70.35
2022-10-22T08:39:57.524Z,70.35
2022-10-22T08:41:18.468Z,70.58
2022-10-22T08:43:07.037Z,70.66
2022-10-22T08:44:26.206Z,70.56
2022-10-22T08:45:47.472Z,70.85
2022-10-22T08:47:19.968Z,71.09
2022-10-22T08:48:46.228Z,71.20
2022-10-22T08:49:48.505Z,71.46
2022-10-22T08:50:54.618Z,72.05
2022-10-22T08:52:00.651Z,72.19
2022-10-22T08:53:08.037Z,72.70
2022-10-22T08:54:13.271Z,72.75
2022-10-22T08:55:16.901Z,73.11
2022-10-22T08:56:21.905Z,73.27
2022-10-22T08:57:52.543Z,73.40
2022-10-22T08:59:22.953Z,73.43
2022-10-22T09:00:36.703Z,73.75
2022-10-22T09:01:43.467Z,73.60
2022-10-22T09:03:13.731Z,73.73
2022-10-22T09:04:28.835Z,73.58
2022-10-22T09:05:56.568Z,73.68
2022-10-22T09:07:00.584Z,73.74
2022-10-22T09:08:02.949Z,73.96
2022-10-22T09:09:12.556Z,73.87
2022-10-22T09:10:14.896Z,73.71
2022-10-22T09:11:32.266Z,73.92
2022-10-22T09:12:34.446Z,73.93
2022-10-22T09:13:37.520Z,74.00
2022-10-22T09:14:39.940Z,73.95
2022-10-22T09:15:43.758Z,74.01
2022-10-22T09:17:16.065Z,74.08
2022-10-22T09:18:24.284Z,73.83
2022-10-22T09:20:03.562Z,73.49
2022-10-22T09:21:15.807Z,73.39
2022-10-22T09:22:47.090Z,73.40
2022-10-22T09:24:06.117Z,73.36
2022-10-22T09:25:29.350Z,73.49
2022-10-22T09:26:36.683Z,73.09
2022-10-22T09:27:39.418Z,73.32
2022-10-22T09:28:43.209Z,73.17
2022-10-22T09:29:47.897Z,72.85
2022-10-22T09:30:50.361Z,72.97
2022-10-22T09:31:52.584Z,73.01
2022-10-22T09:33:09.927Z,72.95
2022-10-22T09:34:15.655Z,72.87
2022-10-22T09:35:22.828Z,72.88
2022-10-22T09:36:28.976Z,72.58
2022-10-22T09:37:31.277Z,72.73
2022-10-22T09:38:44.802Z,72.35
2022-10-22T09:39:51.684Z,72.36
2022-10-22T09:40:56.626Z,72.42
2022-10-22T09:41:59.385Z,72.39
2022-10-22T09:43:01.695Z,72.48
2022-10-22T09:44:07.105Z,72.24
2022-10-22T09:45:29.648Z,72.20
2022-10-22T09:46:44.010Z,72.02
2022-10-22T09:48:02.548Z,72.09
2022-10-22T09:49:12.576Z,71.80
2022-10-22T09:50:27.814Z,71.78
2022-10-22T09:51:45.688Z,71.98
2022-10-22T09:53:16.204Z,71.68
2022-10-22T09:54:24.645Z,71.43
2022-10-22T09:55:28.112Z,71.94
2022-10-22T09:56:43.411Z,71.49
2022-10-22T09:57:54.256Z,71.22
2022-10-22T09:58:57.933Z,71.26
2022-10-22T10:00:00.265Z,71.01
2022-10-22T10:01:02.687Z,70.94
2022-10-22T10:02:37.475Z,70.33
2022-10-22T10:03:40.714Z,70.59
2022-10-22T10:04:52.704Z,70.13
2022-10-22T10:06:02.960Z,70.06
2022-10-22T10:07:21.225Z,69.94
2022-10-22T10:08:24.881Z,69.80
2022-10-22T10:09:29.555Z,69.70
2022-10-22T10:10:41.902Z,69.71
2022-10-22T10:11:54.585Z,69.15
2022-10-22T10:13:08.301Z,68.92
2022-10-22T10:14:28.764Z,68.49
2022-10-22T10:15:49.765Z,68.18
2022-10-22T10:17:04.126Z,67.63
2022-10-22T10:18:38.424Z,67.62
2022-10-22T10:19:47.761Z,66.47
2022-10-22T10:22:23.397Z,65.50
2022-10-22T10:23:47.198Z,64.89
2022-10-22T10:25:08.473Z,65.49
2022-10-22T10:26:22.788Z,64.55
2022-10-22T10:27:37.518Z,64.42
2022-10-22T10:29:07.462Z,64.37
2022-10-22T10:30:21.576Z,64.34
2022-10-22T10:31:29.882Z,63.52
2022-10-22T10:33:07.660Z,63.63
2022-10-22T10:34:19.315Z,63.24
2022-10-22T10:35:31.354Z,63.36
2022-10-22T10:36:54.528Z,63.19
2022-10-22T10:38:11.711Z,62.73
2022-10-22T10:39:30.237Z,62.22
2022-10-22T10:40:59.949Z,62.42
2022-10-22T10:42:33.011Z,61.59
2022-10-22T10:43:44.363Z,60.98
2022-10-22T10:45:20.351Z,60.86
2022-10-22T10:46:40.852Z,59.89
2022-10-22T10:48:07.478Z,59.38
2022-10-22T10:49:20.149Z,58.71
2022-10-22T10:50:46.580Z,58.88
2022-10-22T10:51:56.535Z,58.55
2022-10-22T10:53:18.273Z,58.19
2022-10-22T10:54:20.443Z,58.02
2022-10-22T10:55:30.432Z,57.77
2022-10-22T10:56:47.555Z,58.01
2022-10-22T10:58:00.019Z,58.16
2022-10-22T10:59:23.720Z,58.05
2022-10-22T11:00:27.879Z,57.69
2022-10-22T11:02:02.851Z,57.59
2022-10-22T11:03:17.054Z,57.15
2022-10-22T11:04:42.519Z,57.26
2022-10-22T11:06:01.748Z,57.39
2022-10-22T11:07:11.673Z,57.38
2022-10-22T11:08:46.578Z,56.86
2022-10-22T11:09:56.381Z,56.40
2022-10-22T11:11:07.844Z,55.95
2022-10-22T11:12:22.700Z,56.23
2022-10-22T11:13:30.920Z,56.02
2022-10-22T11:14:45.113Z,55.96
2022-10-22T11:16:00.980Z,56.31
2022-10-22T11:17:14.170Z,56.18
2022-10-22T11:18:35.651Z,56.53
2022-10-22T11:19:51.568Z,56.50
2022-10-22T11:21:05.811Z,56.94
2022-10-22T11:22:18.355Z,56.72
2022-10-22T11:23:39.405Z,56.62
2022-10-22T11:25:17.963Z,56.61
2022-10-22T11:26:29.397Z,56.91
2022-10-22T11:27:42.965Z,57.11
2022-10-22T11:28:51.404Z,57.29
2022-10-22T11:30:01.520Z,57.27
2022-10-22T11:31:13.265Z,57.25
2022-10-22T11:32:19.145Z,57.55
2022-10-22T11:33:27.175Z,57.52
2022-10-22T11:34:45.272Z,57.71
2022-10-22T11:35:48.906Z,57.63
2022-10-22T11:36:54.937Z,57.67
2022-10-22T11:37:58.920Z,57.75
2022-10-22T11:39:04.097Z,57.91
2022-10-22T11:40:14.877Z,58.01
2022-10-22T11:41:18.956Z,58.18
2022-10-22T11:42:30.189Z,57.91
2022-10-22T11:43:49.123Z,57.94
2022-10-22T11:45:02.986Z,58.10
2022-10-22T11:46:17.236Z,58.03
2022-10-22T11:47:27.248Z,58.31
2022-10-22T11:48:38.405Z,57.97
2022-10-22T11:49:46.675Z,58.28
2022-10-22T11:50:49.660Z,58.34
2022-10-22T11:52:06.281Z,58.50
2022-10-22T11:53:14.811Z,58.28
2022-10-22T11:54:42.662Z,58.69
2022-10-22T11:55:48.623Z,58.48
2022-10-22T11:56:58.395Z,58.69
2022-10-22T11:58:02.673Z,58.69
2022-10-22T11:59:28.647Z,58.62
2022-10-22T12:00:35.753Z,58.88
2022-10-22T12:01:42.310Z,58.33
2022-10-22T12:02:46.577Z,58.49
2022-10-22T12:04:16.786Z,58.46
2022-10-22T12:05:40.849Z,58.37
2022-10-22T12:07:03.637Z,58.16
2022-10-22T12:08:17.291Z,58.13
2022-10-22T12:09:20.108Z,58.68
2022-10-22T12:10:28.589Z,58.53
2022-10-22T12:11:47.891Z,58.32
2022-10-22T12:12:57.680Z,58.28
2022-10-22T12:14:36.332Z,58.11
2022-10-22T12:15:49.007Z,58.11
2022-10-22T12:17:14.767Z,57.83
2022-10-22T12:18:17.819Z,57.87
2022-10-22T12:19:22.928Z,57.77
2022-10-22T12:20:26.148Z,57.83
2022-10-22T12:21:28.523Z,57.85
2022-10-22T12:22:33.383Z,57.98
2022-10-22T12:23:37.328Z,57.90
2022-10-22T12:24:44.727Z,58.02
2022-10-22T12:25:50.807Z,57.96
2022-10-22T12:26:53.191Z,57.99
2022-10-22T12:27:58.520Z,57.90
2022-10-22T12:29:03.711Z,58.11
2022-10-22T12:30:22.442Z,57.80
2022-10-22T12:31:25.022Z,57.71
2022-10-22T12:32:35.862Z,57.21
2022-10-22T12:33:38.858Z,57.57
2022-10-22T12:36:18.612Z,57.30
2022-10-22T12:37:24.338Z,56.85
2022-10-22T12:38:26.654Z,56.75
2022-10-22T12:39:29.230Z,56.98
2022-10-22T12:40:35.426Z,56.87
2022-10-22T12:41:41.668Z,56.93
2022-10-22T12:42:52.036Z,56.79
2022-10-22T12:43:59.446Z,56.58
2022-10-22T12:45:01.708Z,56.71
2022-10-22T12:46:03.956Z,56.50
2022-10-22T12:47:08.467Z,56.46
2022-10-22T12:48:23.880Z,56.07
2022-10-22T12:49:35.522Z,56.09
2022-10-22T12:50:43.281Z,55.95
2022-10-22T12:51:46.925Z,56.35
2022-10-22T12:52:49.701Z,56.56
2022-10-22T12:54:27.861Z,56.18
2022-10-22T12:55:33.158Z,55.64
2022-10-22T12:56:37.821Z,55.85
2022-10-22T12:57:40.028Z,55.60
2022-10-22T12:59:07.810Z,55.52
2022-10-22T13:00:39.334Z,55.57
2022-10-22T13:01:45.868Z,55.33
2022-10-22T13:02:48.226Z,55.34
2022-10-22T13:04:03.883Z,54.96
2022-10-22T13:05:25.416Z,55.05
2022-10-22T13:06:28.671Z,54.80
2022-10-22T13:07:41.357Z,54.71
2022-10-22T13:08:43.633Z,55.08
2022-10-22T13:09:56.933Z,54.68
2022-10-22T13:11:09.496Z,54.46
2022-10-22T13:12:16.500Z,54.56
2022-10-22T13:13:34.138Z,54.79
2022-10-22T13:14:38.651Z,54.57
2022-10-22T13:15:40.882Z,54.68
2022-10-22T13:16:45.394Z,54.72
2022-10-22T13:17:49.726Z,54.87
2022-10-22T13:18:52.927Z,55.06
2022-10-22T13:19:55.151Z,54.79
2022-10-22T13:21:03.553Z,54.83
2022-10-22T13:22:06.030Z,54.79
2022-10-22T13:23:27.317Z,54.84
2022-10-22T13:24:31.137Z,54.53
2022-10-22T13:25:37.392Z,54.57
2022-10-22T13:26:39.617Z,55.01
2022-10-22T13:27:46.431Z,54.91
2022-10-22T13:28:57.237Z,54.98
2022-10-22T13:30:11.041Z,55.30
2022-10-22T13:31:23.024Z,55.46
2022-10-22T13:32:32.414Z,55.24
2022-10-22T13:33:37.800Z,54.88
2022-10-22T13:34:40.771Z,54.88
2022-10-22T13:35:42.993Z,54.61
2022-10-22T13:36:45.368Z,55.02
2022-10-22T13:37:47.584Z,55.04
2022-10-22T13:38:49.862Z,55.02
2022-10-22T13:39:52.120Z,54.99
2022-10-22T13:40:55.358Z,55.09
2022-10-22T13:41:57.622Z,55.02
2022-10-22T13:42:59.848Z,54.71
2022-10-22T13:44:02.079Z,54.88
2022-10-22T13:45:04.483Z,54.89
2022-10-22T13:46:10.960Z,54.58
2022-10-22T13:47:29.934Z,54.57
2022-10-22T13:48:32.345Z,54.56
2022-10-22T13:49:35.265Z,54.87
2022-10-22T13:50:38.537Z,54.70
2022-10-22T13:51:40.976Z,54.48
2022-10-22T13:52:54.583Z,54.83
2022-10-22T13:53:57.437Z,54.83
2022-10-22T13:54:59.970Z,54.73
2022-10-22T13:56:02.165Z,54.54
2022-10-22T13:57:12.448Z,54.42
2022-10-22T13:58:19.971Z,54.26
2022-10-22T13:59:23.818Z,54.48
2022-10-22T14:00:27.782Z,54.78
2022-10-22T14:01:30.466Z,54.72
2022-10-22T14:02:32.729Z,54.35
2022-10-22T14:03:40.411Z,54.45
2022-10-22T14:04:43.888Z,54.52
2022-10-22T14:05:47.629Z,54.86
2022-10-22T14:06:49.825Z,54.49
2022-10-22T14:07:52.933Z,54.49
2022-10-22T14:08:58.641Z,54.49
2022-10-22T14:10:00.864Z,54.57
2022-10-22T14:11:03.030Z,54.27
2022-10-22T14:12:13.230Z,54.53
2022-10-22T14:13:19.295Z,54.28
2022-10-22T14:14:21.539Z,54.45
2022-10-22T14:15:27.805Z,54.61
2022-10-22T14:16:33.241Z,54.34
2022-10-22T14:17:35.528Z,54.54
2022-10-22T14:18:37.762Z,54.32
2022-10-22T14:19:40.040Z,54.55
2022-10-22T14:20:42.845Z,54.54
2022-10-22T14:21:45.182Z,54.71
2022-10-22T14:22:48.935Z,54.39
2022-10-22T14:23:52.967Z,54.65
2022-10-22T14:24:55.587Z,54.56
2022-10-22T14:25:59.262Z,54.42
2022-10-22T14:27:01.481Z,54.54
2022-10-22T14:28:03.739Z,54.58
2022-10-22T14:29:10.266Z,54.92
2022-10-22T14:30:16.224Z,54.67